Observation data for Tulia on 08/09/2020      Previous  Date  Next       Current Mesonet Observations  Soil Data  Daily Summary Page  Observations in Plain Language
KTIS 090500Z 16010KT 28/15 A3009 RMK A01 T02770145  RH  046%=      5-min Rain = 0
KTIS 090505Z 16009KT 27/15 A3009 RMK A01 T02740146  RH  047%=      5-min Rain = 0
KTIS 090510Z 16008KT 27/15 A3009 RMK A01 T02720146  RH  048%=      5-min Rain = 0
KTIS 090515Z 17009KT 27/15 A301 RMK A01 T02720145  RH  048%=      5-min Rain = 0
KTIS 090520Z 17009KT 27/14 A301 RMK A01 T02740144  RH  047%=      5-min Rain = 0
KTIS 090525Z 17009KT 28/15 A301 RMK A01 T02750145  RH  047%=      5-min Rain = 0
KTIS 090530Z 17011KT 28/14 A301 RMK A01 T02780143  RH  045%=      5-min Rain = 0
KTIS 090535Z 17011KT 28/14 A301 RMK A01 T02810142  RH  044%=      5-min Rain = 0
KTIS 090540Z 17013KT 28/14 A3009 RMK A01 T02830140  RH  044%=      5-min Rain = 0
KTIS 090545Z 17014KT 28/14 A3009 RMK A01 T02840139  RH  043%=      5-min Rain = 0
KTIS 090550Z 18013KT 29/14 A3009 RMK A01 T02850138  RH  042%=      5-min Rain = 0
KTIS 090555Z 18012KT 28/14 A3009 RMK A01 T02830138  RH  043%=      5-min Rain = 0
KTIS 090600Z 18013G18KT 28/14 A301 RMK A01 T02820137  RH  043%=      5-min Rain = 0
KTIS 090605Z 18013KT 28/14 A301 RMK A01 T02810137  RH  043%=      5-min Rain = 0
KTIS 090610Z 18014G20KT 28/14 A301 RMK A01 T02810136  RH  043%=      5-min Rain = 0
KTIS 090615Z 18013KT 28/14 A301 RMK A01 T02800137  RH  043%=      5-min Rain = 0
KTIS 090620Z 18015KT 28/14 A301 RMK A01 T02790137  RH  043%=      5-min Rain = 0
KTIS 090625Z 18013KT 28/14 A301 RMK A01 T02780137  RH  044%=      5-min Rain = 0
KTIS 090630Z 18013KT 28/14 A301 RMK A01 T02770137  RH  044%=      5-min Rain = 0
KTIS 090635Z 18014KT 28/14 A301 RMK A01 T02770137  RH  044%=      5-min Rain = 0
KTIS 090640Z 18012G17KT 28/14 A301 RMK A01 T02760137  RH  044%=      5-min Rain = 0
KTIS 090645Z 18011KT 27/14 A301 RMK A01 T02740137  RH  045%=      5-min Rain = 0
KTIS 090650Z 18011KT 27/14 A301 RMK A01 T02730137  RH  045%=      5-min Rain = 0
KTIS 090655Z 18010KT 27/14 A301 RMK A01 T02720137  RH  045%=      5-min Rain = 0
KTIS 090700Z 18009KT 27/14 A301 RMK A01 T02700137  RH  046%=      5-min Rain = 0
KTIS 090705Z 18010KT 27/14 A301 RMK A01 T02700137  RH  046%=      5-min Rain = 0
KTIS 090710Z 18009KT 27/14 A301 RMK A01 T02700137  RH  046%=      5-min Rain = 0
KTIS 090715Z 19008KT 27/14 A301 RMK A01 T02700136  RH  046%=      5-min Rain = 0
KTIS 090720Z 20007KT 27/14 A301 RMK A01 T02690138  RH  046%=      5-min Rain = 0
KTIS 090725Z 21006KT 27/14 A3011 RMK A01 T02670138  RH  047%=      5-min Rain = 0
KTIS 090730Z 22005KT 27/14 A3011 RMK A01 T02670137  RH  047%=      5-min Rain = 0
KTIS 090735Z 20006KT 27/14 A3011 RMK A01 T02680137  RH  047%=      5-min Rain = 0
KTIS 090740Z 20006KT 27/14 A3011 RMK A01 T02660138  RH  047%=      5-min Rain = 0
KTIS 090745Z 19007KT 27/14 A3011 RMK A01 T02650137  RH  047%=      5-min Rain = 0
KTIS 090750Z 19008KT 27/14 A3011 RMK A01 T02660138  RH  047%=      5-min Rain = 0
KTIS 090755Z 19010KT 27/14 A3011 RMK A01 T02660138  RH  047%=      5-min Rain = 0
KTIS 090800Z 19009KT 27/14 A3011 RMK A01 T02660138  RH  047%=      5-min Rain = 0
KTIS 090805Z 19008KT 26/14 A3011 RMK A01 T02640139  RH  048%=      5-min Rain = 0
KTIS 090810Z 20007KT 26/14 A3011 RMK A01 T02630139  RH  048%=      5-min Rain = 0
KTIS 090815Z 20007KT 26/14 A3011 RMK A01 T02630139  RH  049%=      5-min Rain = 0
KTIS 090820Z 20009KT 26/14 A3011 RMK A01 T02640138  RH  048%=      5-min Rain = 0
KTIS 090825Z 20010KT 27/14 A3011 RMK A01 T02650138  RH  048%=      5-min Rain = 0
KTIS 090830Z 21011KT 26/14 A3011 RMK A01 T02640138  RH  048%=      5-min Rain = 0
KTIS 090835Z 21012KT 26/14 A3011 RMK A01 T02640138  RH  048%=      5-min Rain = 0
KTIS 090840Z 21011KT 26/14 A3011 RMK A01 T02630138  RH  048%=      5-min Rain = 0
KTIS 090845Z 21012KT 26/14 A301 RMK A01 T02610138  RH  049%=      5-min Rain = 0
KTIS 090850Z 21012G18KT 26/14 A301 RMK A01 T02610138  RH  049%=      5-min Rain = 0
KTIS 090855Z 21013KT 26/14 A301 RMK A01 T02600138  RH  049%=      5-min Rain = 0
KTIS 090900Z 21012KT 26/14 A301 RMK A01 T02590138  RH  049%=      5-min Rain = 0
KTIS 090905Z 21012KT 26/14 A301 RMK A01 T02570139  RH  050%=      5-min Rain = 0
KTIS 090910Z 21012KT 26/14 A301 RMK A01 T02570139  RH  050%=      5-min Rain = 0
KTIS 090915Z 21012KT 26/14 A301 RMK A01 T02570139  RH  050%=      5-min Rain = 0
KTIS 090920Z 21011KT 26/14 A301 RMK A01 T02560140  RH  051%=      5-min Rain = 0
KTIS 090925Z 21010KT 26/14 A3011 RMK A01 T02550140  RH  051%=      5-min Rain = 0
KTIS 090930Z 21010KT 25/14 A3011 RMK A01 T02540141  RH  052%=      5-min Rain = 0
KTIS 090935Z 21009KT 25/14 A3011 RMK A01 T02520141  RH  052%=      5-min Rain = 0
KTIS 090940Z 21009KT 25/14 A3011 RMK A01 T02510142  RH  053%=      5-min Rain = 0
KTIS 090945Z 21009KT 25/14 A3011 RMK A01 T02510141  RH  053%=      5-min Rain = 0
KTIS 090950Z 21009KT 25/14 A3011 RMK A01 T02520140  RH  052%=      5-min Rain = 0
KTIS 090955Z 21009KT 25/14 A3011 RMK A01 T02510140  RH  052%=      5-min Rain = 0
KTIS 091000Z 21008KT 25/14 A3011 RMK A01 T02500140  RH  053%=      5-min Rain = 0
KTIS 091005Z 20007KT 25/14 A3011 RMK A01 T02480140  RH  053%=      5-min Rain = 0
KTIS 091010Z 21006KT 25/14 A3011 RMK A01 T02450141  RH  054%=      5-min Rain = 0
KTIS 091015Z 21006KT 24/14 A3011 RMK A01 T02440140  RH  055%=      5-min Rain = 0
KTIS 091020Z 21005KT 24/14 A3011 RMK A01 T02430141  RH  055%=      5-min Rain = 0
KTIS 091025Z 21005KT 24/14 A3011 RMK A01 T02430141  RH  055%=      5-min Rain = 0
KTIS 091030Z 21004KT 24/14 A3011 RMK A01 T02430141  RH  055%=      5-min Rain = 0
KTIS 091035Z 20004KT 24/14 A3011 RMK A01 T02440141  RH  055%=      5-min Rain = 0
KTIS 091040Z 19002KT 24/14 A3011 RMK A01 T02430142  RH  056%=      5-min Rain = 0
KTIS 091045Z 14004KT 24/14 A3012 RMK A01 T02400144  RH  057%=      5-min Rain = 0
KTIS 091050Z 11005KT 24/15 A3012 RMK A01 T02370146  RH  059%=      5-min Rain = 0
KTIS 091055Z 14004KT 24/15 A3012 RMK A01 T02360146  RH  059%=      5-min Rain = 0
KTIS 091100Z 14004KT 24/15 A3012 RMK A01 T02360147  RH  060%=      5-min Rain = 0
KTIS 091105Z 14003KT 24/15 A3012 RMK A01 T02350148  RH  061%=      5-min Rain = 0
KTIS 091110Z 14005KT 24/15 A3012 RMK A01 T02350148  RH  061%=      5-min Rain = 0
KTIS 091115Z 14006KT 23/15 A3012 RMK A01 T02330150  RH  062%=      5-min Rain = 0
KTIS 091120Z 14005KT 23/15 A3013 RMK A01 T02310150  RH  063%=      5-min Rain = 0
KTIS 091125Z 15005KT 23/15 A3013 RMK A01 T02310150  RH  063%=      5-min Rain = 0
KTIS 091130Z 17006KT 23/15 A3013 RMK A01 T02310151  RH  064%=      5-min Rain = 0
KTIS 091135Z 17006KT 23/15 A3013 RMK A01 T02320150  RH  063%=      5-min Rain = 0
KTIS 091140Z 17006KT 23/15 A3013 RMK A01 T02310153  RH  064%=      5-min Rain = 0
KTIS 091145Z 17006KT 23/15 A3013 RMK A01 T02290154  RH  066%=      5-min Rain = 0
KTIS 091150Z 18006KT 23/15 A3013 RMK A01 T02290152  RH  065%=      5-min Rain = 0
KTIS 091155Z 19006KT 23/15 A3013 RMK A01 T02290151  RH  064%=      5-min Rain = 0
KTIS 091200Z 20006KT 23/15 A3013 RMK A01 T02300151  RH  064%=      5-min Rain = 0
KTIS 091205Z 21007KT 23/15 A3013 RMK A01 T02300151  RH  064%=      5-min Rain = 0
KTIS 091210Z 21007KT 23/15 A3013 RMK A01 T02310149  RH  063%=      5-min Rain = 0
KTIS 091215Z 20008KT 23/15 A3013 RMK A01 T02300150  RH  063%=      5-min Rain = 0
KTIS 091220Z 21008KT 23/15 A3013 RMK A01 T02280149  RH  064%=      5-min Rain = 0
KTIS 091225Z 20008KT 23/15 A3013 RMK A01 T02270149  RH  064%=      5-min Rain = 0
KTIS 091230Z 20007KT 22/15 A3013 RMK A01 T02240149  RH  065%=      5-min Rain = 0
KTIS 091235Z 19007KT 22/15 A3013 RMK A01 T02210149  RH  066%=      5-min Rain = 0
KTIS 091240Z 19008KT 22/15 A3013 RMK A01 T02220148  RH  066%=      5-min Rain = 0
KTIS 091245Z 18009KT 22/15 A3013 RMK A01 T02240147  RH  065%=      5-min Rain = 0
KTIS 091250Z 19008KT 22/15 A3013 RMK A01 T02240147  RH  064%=      5-min Rain = 0
KTIS 091255Z 19008KT 23/15 A3013 RMK A01 T02280146  RH  062%=      5-min Rain = 0
KTIS 091300Z 18009KT 23/15 A3013 RMK A01 T02300147  RH  062%=      5-min Rain = 0
KTIS 091305Z 18009KT 23/15 A3013 RMK A01 T02330148  RH  061%=      5-min Rain = 0
KTIS 091310Z 18009KT 24/15 A3013 RMK A01 T02360148  RH  060%=      5-min Rain = 0
KTIS 091315Z 18010KT 24/15 A3012 RMK A01 T02390147  RH  059%=      5-min Rain = 0
KTIS 091320Z 18011KT 24/15 A3013 RMK A01 T02420148  RH  058%=      5-min Rain = 0
KTIS 091325Z 19012KT 25/15 A3013 RMK A01 T02450149  RH  058%=      5-min Rain = 0
KTIS 091330Z 19012KT 25/15 A3013 RMK A01 T02480149  RH  056%=      5-min Rain = 0
KTIS 091335Z 19014G19KT 25/15 A3013 RMK A01 T02510148  RH  055%=      5-min Rain = 0
KTIS 091340Z 19015KT 25/15 A3013 RMK A01 T02530149  RH  055%=      5-min Rain = 0
KTIS 091345Z 19015KT 26/15 A3013 RMK A01 T02550149  RH  055%=      5-min Rain = 0
KTIS 091350Z 19015KT 26/15 A3013 RMK A01 T02570150  RH  054%=      5-min Rain = 0
KTIS 091355Z 19015G21KT 26/15 A3013 RMK A01 T02590150  RH  053%=      5-min Rain = 0
KTIS 091400Z 19015G20KT 26/15 A3013 RMK A01 T02610151  RH  053%=      5-min Rain = 0
KTIS 091405Z 19017G22KT 26/15 A3013 RMK A01 T02620151  RH  053%=      5-min Rain = 0
KTIS 091410Z 19016KT 26/15 A3013 RMK A01 T02630154  RH  053%=      5-min Rain = 0
KTIS 091415Z 19018KT 27/16 A3013 RMK A01 T02650155  RH  053%=      5-min Rain = 0
KTIS 091420Z 19018G23KT 27/16 A3013 RMK A01 T02670157  RH  053%=      5-min Rain = 0
KTIS 091425Z 19019G24KT 27/16 A3013 RMK A01 T02670158  RH  054%=      5-min Rain = 0
KTIS 091430Z 19019KT 27/16 A3013 RMK A01 T02680159  RH  054%=      5-min Rain = 0
KTIS 091435Z 19018G23KT 27/16 A3013 RMK A01 T02690160  RH  054%=      5-min Rain = 0
KTIS 091440Z 19018KT 27/16 A3013 RMK A01 T02710161  RH  054%=      5-min Rain = 0
KTIS 091445Z 20019KT 27/16 A3013 RMK A01 T02720161  RH  053%=      5-min Rain = 0
KTIS 091450Z 19018KT 27/16 A3013 RMK A01 T02740162  RH  053%=      5-min Rain = 0
KTIS 091455Z 19018G23KT 27/16 A3013 RMK A01 T02740161  RH  053%=      5-min Rain = 0
KTIS 091500Z 19019KT 28/16 A3013 RMK A01 T02760161  RH  052%=      5-min Rain = 0
KTIS 091505Z 19018KT 28/16 A3013 RMK A01 T02770162  RH  052%=      5-min Rain = 0
KTIS 091510Z 19019KT 28/16 A3012 RMK A01 T02760162  RH  052%=      5-min Rain = 0
KTIS 091515Z 19017G24KT 28/16 A3012 RMK A01 T02790163  RH  052%=      5-min Rain = 0
KTIS 091520Z 19019KT 28/17 A3012 RMK A01 T02810165  RH  052%=      5-min Rain = 0
KTIS 091525Z 20018G23KT 28/16 A3012 RMK A01 T02820164  RH  051%=      5-min Rain = 0
KTIS 091530Z 20018KT 28/16 A3012 RMK A01 T02830164  RH  051%=      5-min Rain = 0
KTIS 091535Z 20018G23KT 28/16 A3012 RMK A01 T02840163  RH  050%=      5-min Rain = 0
KTIS 091540Z 19016G21KT 29/17 A3012 RMK A01 T02860165  RH  050%=      5-min Rain = 0
KTIS 091545Z 20017KT 29/17 A3012 RMK A01 T02890165  RH  049%=      5-min Rain = 0
KTIS 091550Z 20015KT 29/16 A3012 RMK A01 T02900164  RH  049%=      5-min Rain = 0
KTIS 091555Z 20017KT 29/17 A3012 RMK A01 T02920165  RH  049%=      5-min Rain = 0
KTIS 091600Z 20018KT 29/16 A3012 RMK A01 T02920164  RH  048%=      5-min Rain = 0
KTIS 091605Z 20018KT 30/17 A3012 RMK A01 T02950165  RH  048%=      5-min Rain = 0
KTIS 091610Z 19017G22KT 30/17 A3012 RMK A01 T02960167  RH  048%=      5-min Rain = 0
KTIS 091615Z 20016G22KT 30/17 A3012 RMK A01 T02980168  RH  048%=      5-min Rain = 0
KTIS 091620Z 20016G21KT 30/17 A3012 RMK A01 T02990170  RH  048%=      5-min Rain = 0
KTIS 091625Z 19017G22KT 30/17 A3012 RMK A01 T03020169  RH  047%=      5-min Rain = 0
KTIS 091630Z 19016KT 30/17 A3012 RMK A01 T03000169  RH  048%=      5-min Rain = 0
KTIS 091635Z 19015G20KT 30/17 A3012 RMK A01 T03000170  RH  048%=      5-min Rain = 0
KTIS 091640Z 19016KT 30/17 A3011 RMK A01 T03020173  RH  048%=      5-min Rain = 0
KTIS 091645Z 19017KT 30/17 A3011 RMK A01 T03020170  RH  047%=      5-min Rain = 0
KTIS 091650Z 20016G21KT 30/17 A3011 RMK A01 T03040169  RH  046%=      5-min Rain = 0
KTIS 091655Z 20015KT 31/17 A3011 RMK A01 T03060168  RH  046%=      5-min Rain = 0
KTIS 091700Z 19016KT 31/17 A3011 RMK A01 T03070170  RH  046%=      5-min Rain = 0
KTIS 091705Z 21016KT 31/17 A3011 RMK A01 T03090168  RH  045%=      5-min Rain = 0
KTIS 091710Z 19016G21KT 31/17 A3011 RMK A01 T03120172  RH  045%=      5-min Rain = 0
KTIS 091715Z 17015G20KT 31/17 A3011 RMK A01 T03140170  RH  044%=      5-min Rain = 0
KTIS 091720Z 19016KT 32/17 A301 RMK A01 T03150168  RH  043%=      5-min Rain = 0
KTIS 091725Z 19015KT 32/17 A301 RMK A01 T03160166  RH  043%=      5-min Rain = 0
KTIS 091730Z 18016KT 32/17 A301 RMK A01 T03170168  RH  043%=      5-min Rain = 0
KTIS 091735Z 19015KT 32/17 A301 RMK A01 T03210168  RH  042%=      5-min Rain = 0
KTIS 091740Z 19013G19KT 32/17 A301 RMK A01 T03200166  RH  041%=      5-min Rain = 0
KTIS 091745Z 20016KT 32/17 A301 RMK A01 T03210165  RH  041%=      5-min Rain = 0
KTIS 091750Z 21015G21KT 32/16 A3009 RMK A01 T03210163  RH  041%=      5-min Rain = 0
KTIS 091755Z 20016G22KT 32/16 A3009 RMK A01 T03230163  RH  040%=      5-min Rain = 0
KTIS 091800Z 21015KT 33/16 A3009 RMK A01 T03250164  RH  040%=      5-min Rain = 0
KTIS 091805Z 21015KT 33/16 A3009 RMK A01 T03270161  RH  039%=      5-min Rain = 0
KTIS 091810Z 20014G20KT 33/17 A3009 RMK A01 T03280165  RH  040%=      5-min Rain = 0
KTIS 091815Z 20015G21KT 33/16 A3009 RMK A01 T03280161  RH  038%=      5-min Rain = 0
KTIS 091820Z 19015G20KT 33/16 A3009 RMK A01 T03290162  RH  039%=      5-min Rain = 0
KTIS 091825Z 18015G20KT 33/15 A3009 RMK A01 T03320153  RH  036%=      5-min Rain = 0
KTIS 091830Z 19014G20KT 34/16 A3009 RMK A01 T03350157  RH  036%=      5-min Rain = 0
KTIS 091835Z 19015G20KT 33/16 A3009 RMK A01 T03330155  RH  036%=      5-min Rain = 0
KTIS 091840Z 20015KT 33/15 A3009 RMK A01 T03330150  RH  035%=      5-min Rain = 0
KTIS 091845Z 19013KT 33/16 A3009 RMK A01 T03340158  RH  037%=      5-min Rain = 0
KTIS 091850Z 21014G20KT 33/15 A3008 RMK A01 T03320152  RH  035%=      5-min Rain = 0
KTIS 091855Z 19015G24KT 34/16 A3008 RMK A01 T03370155  RH  035%=      5-min Rain = 0
KTIS 091900Z 20015G20KT 34/16 A3008 RMK A01 T03380158  RH  036%=      5-min Rain = 0
KTIS 091905Z 21014G22KT 34/16 A3008 RMK A01 T03390157  RH  035%=      5-min Rain = 0
KTIS 091910Z 20015G21KT 34/16 A3007 RMK A01 T03400158  RH  035%=      5-min Rain = 0
KTIS 091915Z 18014G19KT 34/16 A3007 RMK A01 T03400156  RH  035%=      5-min Rain = 0
KTIS 091920Z 17014KT 34/15 A3007 RMK A01 T03440150  RH  033%=      5-min Rain = 0
KTIS 091925Z 18016KT 34/15 A3007 RMK A01 T03420153  RH  034%=      5-min Rain = 0
KTIS 091930Z 17014G20KT 34/15 A3007 RMK A01 T03410149  RH  033%=      5-min Rain = 0
KTIS 091935Z 17015KT 34/14 A3006 RMK A01 T03390142  RH  032%=      5-min Rain = 0
KTIS 091940Z 18015KT 34/14 A3006 RMK A01 T03400144  RH  032%=      5-min Rain = 0
KTIS 091945Z 18013G18KT 34/14 A3006 RMK A01 T03410143  RH  032%=      5-min Rain = 0
KTIS 091950Z 19015G20KT 34/15 A3006 RMK A01 T03420146  RH  032%=      5-min Rain = 0
KTIS 091955Z 19015G20KT 34/15 A3005 RMK A01 T03410146  RH  032%=      5-min Rain = 0
KTIS 092000Z 18015KT 35/15 A3005 RMK A01 T03450147  RH  032%=      5-min Rain = 0
KTIS 092005Z 18013G19KT 34/14 A3005 RMK A01 T03430144  RH  032%=      5-min Rain = 0
KTIS 092010Z 19012G17KT 35/14 A3005 RMK A01 T03460143  RH  031%=      5-min Rain = 0
KTIS 092015Z 19013G20KT 35/14 A3005 RMK A01 T03460141  RH  030%=      5-min Rain = 0
KTIS 092020Z 19013KT 35/14 A3005 RMK A01 T03460140  RH  030%=      5-min Rain = 0
KTIS 092025Z 18014G20KT 35/15 A3005 RMK A01 T03500145  RH  031%=      5-min Rain = 0
KTIS 092030Z 19013G18KT 35/14 A3005 RMK A01 T03500140  RH  030%=      5-min Rain = 0
KTIS 092035Z 18014G19KT 35/14 A3004 RMK A01 T03480140  RH  030%=      5-min Rain = 0
KTIS 092040Z 18014KT 35/14 A3004 RMK A01 T03500141  RH  030%=      5-min Rain = 0
KTIS 092045Z 18013G19KT 35/14 A3004 RMK A01 T03490140  RH  030%=      5-min Rain = 0
KTIS 092050Z 18013G18KT 35/14 A3004 RMK A01 T03480142  RH  030%=      5-min Rain = 0
KTIS 092055Z 19013KT 35/14 A3004 RMK A01 T03500140  RH  030%=      5-min Rain = 0
KTIS 092100Z 20013G18KT 35/14 A3003 RMK A01 T03500141  RH  030%=      5-min Rain = 0
KTIS 092105Z 20013KT 35/14 A3003 RMK A01 T03510141  RH  030%=      5-min Rain = 0
KTIS 092110Z 18015G22KT 35/14 A3003 RMK A01 T03500143  RH  030%=      5-min Rain = 0
KTIS 092115Z 17015G22KT 35/14 A3003 RMK A01 T03480143  RH  030%=      5-min Rain = 0
KTIS 092120Z 17014G20KT 35/15 A3003 RMK A01 T03480145  RH  031%=      5-min Rain = 0
KTIS 092125Z 17015G21KT 35/14 A3002 RMK A01 T03500141  RH  030%=      5-min Rain = 0
KTIS 092130Z 17014G19KT 35/14 A3002 RMK A01 T03510142  RH  030%=      5-min Rain = 0
KTIS 092135Z 17014G20KT 35/14 A3002 RMK A01 T03510137  RH  029%=      5-min Rain = 0
KTIS 092140Z 19014G20KT 35/14 A3002 RMK A01 T03510136  RH  029%=      5-min Rain = 0
KTIS 092145Z 17012G17KT 35/14 A3002 RMK A01 T03510139  RH  029%=      5-min Rain = 0
KTIS 092150Z 18014G22KT 35/14 A3002 RMK A01 T03520135  RH  028%=      5-min Rain = 0
KTIS 092155Z 20014KT 35/13 A3002 RMK A01 T03520132  RH  028%=      5-min Rain = 0
KTIS 092200Z 18014G22KT 35/13 A3002 RMK A01 T03530134  RH  028%=      5-min Rain = 0
KTIS 092205Z 17013G19KT 35/13 A3002 RMK A01 T03540133  RH  028%=      5-min Rain = 0
KTIS 092210Z 17012KT 35/13 A3002 RMK A01 T03510132  RH  028%=      5-min Rain = 0
KTIS 092215Z 20012G18KT 35/13 A3002 RMK A01 T03530130  RH  027%=      5-min Rain = 0
KTIS 092220Z 19013KT 35/13 A3002 RMK A01 T03530132  RH  028%=      5-min Rain = 0
KTIS 092225Z 17016KT 35/14 A3002 RMK A01 T03530137  RH  029%=      5-min Rain = 0
KTIS 092230Z 17015G20KT 35/13 A3002 RMK A01 T03530132  RH  028%=      5-min Rain = 0
KTIS 092235Z 19014G19KT 35/13 A3002 RMK A01 T03520131  RH  028%=      5-min Rain = 0
KTIS 092240Z 19013G21KT 35/13 A3002 RMK A01 T03520129  RH  027%=      5-min Rain = 0
KTIS 092245Z 19012G19KT 35/13 A3001 RMK A01 T03520128  RH  027%=      5-min Rain = 0
KTIS 092250Z 19016KT 35/13 A3001 RMK A01 T03530128  RH  027%=      5-min Rain = 0
KTIS 092255Z 18014KT 35/13 A3001 RMK A01 T03510130  RH  027%=      5-min Rain = 0
KTIS 092300Z 18012G20KT 35/13 A3001 RMK A01 T03510128  RH  027%=      5-min Rain = 0
KTIS 092305Z 17014G21KT 35/13 A3001 RMK A01 T03490128  RH  028%=      5-min Rain = 0
KTIS 092310Z 18013G19KT 35/13 A3001 RMK A01 T03480128  RH  028%=      5-min Rain = 0
KTIS 092315Z 18013G19KT 35/13 A3001 RMK A01 T03480128  RH  028%=      5-min Rain = 0
KTIS 092320Z 19014KT 35/13 A3001 RMK A01 T03480130  RH  028%=      5-min Rain = 0
KTIS 092325Z 19012KT 35/13 A3001 RMK A01 T03480130  RH  028%=      5-min Rain = 0
KTIS 092330Z 18013G18KT 35/13 A3001 RMK A01 T03470126  RH  027%=      5-min Rain = 0
KTIS 092335Z 18011G17KT 35/13 A3001 RMK A01 T03460127  RH  028%=      5-min Rain = 0
KTIS 092340Z 18012G17KT 35/13 A3001 RMK A01 T03460126  RH  027%=      5-min Rain = 0
KTIS 092345Z 18014KT 35/13 A3001 RMK A01 T03450127  RH  028%=      5-min Rain = 0
KTIS 092350Z 19011G17KT 35/13 A3001 RMK A01 T03460127  RH  028%=      5-min Rain = 0
KTIS 092355Z 18014KT 35/13 A3001 RMK A01 T03450125  RH  027%=      5-min Rain = 0
KTIS 100000Z 18010KT 35/13 A3001 RMK A01 T03450126  RH  028%=      5-min Rain = 0
KTIS 100005Z 19012KT 34/12 A30 RMK A01 T03440124  RH  027%=      5-min Rain = 0
KTIS 100010Z 18013KT 34/12 A3001 RMK A01 T03410124  RH  028%=      5-min Rain = 0
KTIS 100015Z 16012KT 34/13 A3001 RMK A01 T03390127  RH  029%=      5-min Rain = 0
KTIS 100020Z 17011G17KT 34/13 A3001 RMK A01 T03370131  RH  030%=      5-min Rain = 0
KTIS 100025Z 17013KT 34/12 A3001 RMK A01 T03360124  RH  029%=      5-min Rain = 0
KTIS 100030Z 17011KT 33/13 A3001 RMK A01 T03330125  RH  030%=      5-min Rain = 0
KTIS 100035Z 18011KT 33/12 A3001 RMK A01 T03280122  RH  030%=      5-min Rain = 0
KTIS 100040Z 18011KT 33/12 A3001 RMK A01 T03250121  RH  030%=      5-min Rain = 0
KTIS 100045Z 18011KT 32/12 A3001 RMK A01 T03230118  RH  030%=      5-min Rain = 0
KTIS 100050Z 17010KT 32/12 A3001 RMK A01 T03200118  RH  030%=      5-min Rain = 0
KTIS 100055Z 17010KT 32/12 A3001 RMK A01 T03190117  RH  030%=      5-min Rain = 0
KTIS 100100Z 17010KT 32/12 A3001 RMK A01 T03180116  RH  030%=      5-min Rain = 0
KTIS 100105Z 17011KT 32/11 A3002 RMK A01 T03180114  RH  030%=      5-min Rain = 0
KTIS 100110Z 17011KT 32/12 A3002 RMK A01 T03170115  RH  030%=      5-min Rain = 0
KTIS 100115Z 17010KT 32/12 A3002 RMK A01 T03160117  RH  031%=      5-min Rain = 0
KTIS 100120Z 17010KT 31/12 A3002 RMK A01 T03120119  RH  032%=      5-min Rain = 0
KTIS 100125Z 17010KT 31/12 A3002 RMK A01 T03110118  RH  032%=      5-min Rain = 0
KTIS 100130Z 17009KT 31/12 A3002 RMK A01 T03110119  RH  032%=      5-min Rain = 0
KTIS 100135Z 17009KT 31/12 A3002 RMK A01 T03080120  RH  033%=      5-min Rain = 0
KTIS 100140Z 17010KT 31/12 A3002 RMK A01 T03050121  RH  033%=      5-min Rain = 0
KTIS 100145Z 16009KT 30/12 A3002 RMK A01 T03020122  RH  034%=      5-min Rain = 0
KTIS 100150Z 16009KT 30/12 A3002 RMK A01 T02990122  RH  035%=      5-min Rain = 0
KTIS 100155Z 16009KT 30/12 A3002 RMK A01 T02980121  RH  035%=      5-min Rain = 0
KTIS 100200Z 16009KT 30/12 A3002 RMK A01 T02970121  RH  035%=      5-min Rain = 0
KTIS 100205Z 16009KT 30/12 A3002 RMK A01 T02960121  RH  035%=      5-min Rain = 0
KTIS 100210Z 17009KT 30/12 A3002 RMK A01 T02950120  RH  035%=      5-min Rain = 0
KTIS 100215Z 17009KT 30/12 A3002 RMK A01 T02950120  RH  035%=      5-min Rain = 0
KTIS 100220Z 17009KT 30/12 A3002 RMK A01 T02960118  RH  035%=      5-min Rain = 0
KTIS 100225Z 17009KT 30/12 A3002 RMK A01 T02960118  RH  035%=      5-min Rain = 0
KTIS 100230Z 17009KT 30/12 A3003 RMK A01 T02950118  RH  035%=      5-min Rain = 0
KTIS 100235Z 17009KT 30/12 A3003 RMK A01 T02960116  RH  034%=      5-min Rain = 0
KTIS 100240Z 17009KT 30/12 A3003 RMK A01 T02970115  RH  034%=      5-min Rain = 0
KTIS 100245Z 17009KT 30/11 A3003 RMK A01 T02980114  RH  033%=      5-min Rain = 0
KTIS 100250Z 18009KT 30/11 A3004 RMK A01 T02980114  RH  033%=      5-min Rain = 0
KTIS 100255Z 19009KT 30/11 A3004 RMK A01 T02960114  RH  034%=      5-min Rain = 0
KTIS 100300Z 22013G20KT 30/12 A3006 RMK A01 T02960116  RH  034%=      5-min Rain = 0
KTIS 100305Z 23017G22KT 30/12 A3006 RMK A01 T02970120  RH  035%=      5-min Rain = 0
KTIS 100310Z 23017KT 29/12 A3006 RMK A01 T02920123  RH  037%=      5-min Rain = 0
KTIS 100315Z 23018G23KT 29/13 A3006 RMK A01 T02890127  RH  038%=      5-min Rain = 0
KTIS 100320Z 23017KT 29/13 A3006 RMK A01 T02850130  RH  040%=      5-min Rain = 0
KTIS 100325Z 22015G20KT 28/13 A3006 RMK A01 T02820131  RH  041%=      5-min Rain = 0
KTIS 100330Z 22015KT 28/13 A3006 RMK A01 T02810130  RH  041%=      5-min Rain = 0
KTIS 100335Z 22013KT 28/13 A3006 RMK A01 T02800128  RH  041%=      5-min Rain = 0
KTIS 100340Z 23014G20KT 28/13 A3006 RMK A01 T02800126  RH  040%=      5-min Rain = 0
KTIS 100345Z 23016KT 28/12 A3005 RMK A01 T02810123  RH  039%=      5-min Rain = 0
KTIS 100350Z 23016G22KT 28/12 A3005 RMK A01 T02810120  RH  038%=      5-min Rain = 0
KTIS 100355Z 23015KT 28/12 A3005 RMK A01 T02810118  RH  038%=      5-min Rain = 0
KTIS 100400Z 23015G20KT 28/12 A3005 RMK A01 T02810117  RH  038%=      5-min Rain = 0
KTIS 100405Z 22016G21KT 28/12 A3005 RMK A01 T02810118  RH  038%=      5-min Rain = 0
KTIS 100410Z 23015G21KT 28/12 A3005 RMK A01 T02780121  RH  039%=      5-min Rain = 0
KTIS 100415Z 22014KT 27/12 A3005 RMK A01 T02740123  RH  041%=      5-min Rain = 0
KTIS 100420Z 22012KT 27/12 A3006 RMK A01 T02720124  RH  042%=      5-min Rain = 0
KTIS 100425Z 22012KT 27/13 A3006 RMK A01 T02700125  RH  042%=      5-min Rain = 0
KTIS 100430Z 22013G20KT 27/12 A3006 RMK A01 T02690124  RH  042%=      5-min Rain = 0
KTIS 100435Z 22011G16KT 27/12 A3006 RMK A01 T02680124  RH  042%=      5-min Rain = 0
KTIS 100440Z 22011KT 27/12 A3006 RMK A01 T02670124  RH  043%=      5-min Rain = 0
KTIS 100445Z 22012KT 27/12 A3006 RMK A01 T02670122  RH  042%=      5-min Rain = 0
KTIS 100450Z 22012KT 27/12 A3006 RMK A01 T02670121  RH  042%=      5-min Rain = 0
KTIS 100455Z 22011KT 27/12 A3006 RMK A01 T02660120  RH  042%=      5-min Rain = 0

Page generated in 0.0289 seconds.